< < Back
Terminal Aerodrome Forecast


Current Version              Previous Versions:   1  2  3  4  5  6  7  8  9  

Terminal Aerodrome Forecast

046
FTUS42 KJAX 212300
TAFGNV
TAF
KGNV 212322Z 2200/2224 31005KT P6SM SCT035 BKN250
      TEMPO 2207/2211 3SM BR
     FM221400 30004KT P6SM VCSH SCT030
     FM221800 10008KT P6SM VCTS BKN035CB=

Latest METAR

636
SAUS70 KWBC 221100 RRE
MTRGNV
METAR KGNV 221053Z 00000KT 9SM CLR 21/21 A3005 RMK AO2 SLP172
T02110206


USA.gov is the U.S. government's official web portal to all federal, state and local government web resources and services.